Time;durP1;ratioP1;P1;durP2;ratioP2;P2;SDS_P1;SDS_P2;PMS_P1;PMS_P2;Temp;Humidity;BMP_temperature;BMP_pressure;BME280_temperature;BME280_humidity;BME280_pressure;Samples;Min_cycle;Max_cycle;Signal;HPM_P1;HPM_P2
2022/01/07 00:01:19;;;;;;;;;;;3.20;99.90;;;;;;5014104;28;20039;-77
2022/01/07 00:03:45;;;;;;;;;;;3.20;99.90;;;;;;5031576;28;19913;-76
2022/01/07 00:06:10;;;;;;;;;;;3.10;99.90;;;;;;5014052;28;19916;-77
2022/01/07 00:08:36;;;;;;;;;;;3.10;99.90;;;;;;5013249;28;20049;-78
2022/01/07 00:11:02;;;;;;;;;;;3.10;99.90;;;;;;5013963;28;19925;-75
2022/01/07 00:13:27;;;;;;;;;;;3.00;99.90;;;;;;5013805;28;19913;-76
2022/01/07 00:15:54;;;;;;;;;;;3.00;99.90;;;;;;5032018;28;19913;-77
2022/01/07 00:18:20;;;;;;;;;;;3.00;99.90;;;;;;5013654;28;20393;-77
2022/01/07 00:20:46;;;;;;;;;;;2.90;99.90;;;;;;5013712;28;19929;-77
2022/01/07 00:23:11;;;;;;;;;;;2.90;99.90;;;;;;5031524;28;20457;-77
2022/01/07 00:25:37;;;;;;;;;;;2.90;99.90;;;;;;5030793;28;19921;-77
2022/01/07 00:28:03;;;;;;;;;;;3.00;99.90;;;;;;5012675;28;19921;-76
2022/01/07 00:30:29;;;;;;;;;;;2.90;99.90;;;;;;5013556;28;20475;-77
2022/01/07 00:32:54;;;;;;;;;;;2.90;99.90;;;;;;5013923;28;19921;-77
2022/01/07 00:35:20;;;;;;;;;;;2.90;99.90;;;;;;5031286;28;19920;-77
2022/01/07 00:37:46;;;;;;;;;;;2.90;99.90;;;;;;5031191;28;19913;-77
2022/01/07 00:40:14;;;;;;;;;;;2.90;99.90;;;;;;5012308;28;19986;-76
2022/01/07 00:42:39;;;;;;;;;;;2.90;99.90;;;;;;5031317;28;20696;-76
2022/01/07 00:45:05;;;;;;;;;;;2.90;99.90;;;;;;5030963;28;19925;-78
2022/01/07 00:47:31;;;;;;;;;;;2.90;99.90;;;;;;5013354;28;19921;-76
2022/01/07 00:49:58;;;;;;;;;;;2.90;99.90;;;;;;5031279;28;19935;-76
2022/01/07 00:52:23;;;;;;;;;;;2.90;99.90;;;;;;5031325;28;20336;-77
2022/01/07 00:54:49;;;;;;;;;;;2.90;99.90;;;;;;5030993;28;19917;-78
2022/01/07 00:57:15;;;;;;;;;;;2.90;99.90;;;;;;5031187;28;20017;-77
2022/01/07 00:59:42;;;;;;;;;;;2.90;99.90;;;;;;5013255;28;20453;-77
2022/01/07 01:02:07;;;;;;;;;;;2.90;99.90;;;;;;5030819;28;19913;-78
2022/01/07 01:04:33;;;;;;;;;;;2.90;99.90;;;;;;5030790;28;19918;-77
2022/01/07 01:06:58;;;;;;;;;;;2.90;99.90;;;;;;5012980;28;19921;-77
2022/01/07 01:09:24;;;;;;;;;;;2.90;99.90;;;;;;5031038;28;19996;-76
2022/01/07 01:11:49;;;;;;;;;;;2.90;99.90;;;;;;5030814;28;19917;-78
2022/01/07 01:14:15;;;;;;;;;;;2.90;99.90;;;;;;5031043;28;19913;-78
2022/01/07 01:16:40;;;;;;;;;;;2.90;99.90;;;;;;5031095;28;19913;-77
2022/01/07 01:19:06;;;;;;;;;;;2.90;99.90;;;;;;5030786;28;20366;-78
2022/01/07 01:21:32;;;;;;;;;;;2.90;99.90;;;;;;5030919;28;19940;-78
2022/01/07 01:23:58;;;;;;;;;;;2.90;99.90;;;;;;5030464;28;19990;-77
2022/01/07 01:26:24;;;;;;;;;;;2.90;99.90;;;;;;5012662;28;19925;-77
2022/01/07 01:28:49;;;;;;;;;;;2.90;99.90;;;;;;5012619;28;19928;-78
2022/01/07 01:31:16;;;;;;;;;;;2.80;99.90;;;;;;5030666;28;19920;-78
2022/01/07 01:33:43;;;;;;;;;;;2.90;99.90;;;;;;5030648;28;19920;-77
2022/01/07 01:36:09;;;;;;;;;;;2.80;99.90;;;;;;5012463;28;20086;-77
2022/01/07 01:38:35;;;;;;;;;;;2.80;99.90;;;;;;5012664;28;20387;-76
2022/01/07 01:41:01;;;;;;;;;;;2.80;99.90;;;;;;5030374;28;20296;-76
2022/01/07 01:43:26;;;;;;;;;;;2.90;99.90;;;;;;5030962;28;19920;-77
2022/01/07 01:45:52;;;;;;;;;;;2.90;99.90;;;;;;5030499;28;19921;-77
2022/01/07 01:48:19;;;;;;;;;;;2.90;99.90;;;;;;5012430;28;19924;-77
2022/01/07 01:50:44;;;;;;;;;;;2.80;99.90;;;;;;5030284;28;19913;-77
2022/01/07 01:53:10;;;;;;;;;;;2.90;99.90;;;;;;5029915;28;19943;-76
2022/01/07 01:55:36;;;;;;;;;;;2.80;99.90;;;;;;5030094;28;20296;-77
2022/01/07 01:58:02;;;;;;;;;;;2.90;99.90;;;;;;5030188;28;19917;-78
2022/01/07 02:00:28;;;;;;;;;;;2.90;99.90;;;;;;5011990;28;19920;-77
2022/01/07 02:02:53;;;;;;;;;;;2.90;99.90;;;;;;5029958;28;19971;-77
2022/01/07 02:05:19;;;;;;;;;;;2.90;99.90;;;;;;5011819;28;19909;-78
2022/01/07 02:07:44;;;;;;;;;;;2.90;99.90;;;;;;5012023;28;19956;-77
2022/01/07 02:10:12;;;;;;;;;;;2.90;99.90;;;;;;5030078;28;19913;-77
2022/01/07 02:12:38;;;;;;;;;;;2.90;99.90;;;;;;5029797;28;19917;-77
2022/01/07 02:15:04;;;;;;;;;;;2.90;99.90;;;;;;5012017;28;20229;-77
2022/01/07 02:17:29;;;;;;;;;;;2.90;99.90;;;;;;5011916;28;19919;-77
2022/01/07 02:19:56;;;;;;;;;;;2.90;99.90;;;;;;5029841;28;20353;-77
2022/01/07 02:22:23;;;;;;;;;;;3.00;99.90;;;;;;5029599;28;19917;-78
2022/01/07 02:24:50;;;;;;;;;;;2.90;99.90;;;;;;5011648;28;20016;-76
2022/01/07 02:27:15;;;;;;;;;;;3.00;99.90;;;;;;5029520;28;19928;-77
2022/01/07 02:29:43;;;;;;;;;;;2.90;99.90;;;;;;5029189;28;19920;-78
2022/01/07 02:32:08;;;;;;;;;;;2.90;99.90;;;;;;5011563;28;19923;-76
2022/01/07 02:34:36;;;;;;;;;;;2.90;99.90;;;;;;5029219;28;20316;-77
2022/01/07 02:37:01;;;;;;;;;;;2.90;99.90;;;;;;5011217;28;19919;-77
2022/01/07 02:39:27;;;;;;;;;;;2.90;99.90;;;;;;5010799;28;19917;-76
2022/01/07 02:41:52;;;;;;;;;;;2.90;99.90;;;;;;5011145;28;20320;-77
2022/01/07 02:44:18;;;;;;;;;;;2.90;99.90;;;;;;5029071;28;19925;-77
2022/01/07 02:46:45;;;;;;;;;;;2.90;99.90;;;;;;5029141;28;19925;-78
2022/01/07 02:49:12;;;;;;;;;;;3.00;99.90;;;;;;5029285;28;20012;-77
2022/01/07 02:51:38;;;;;;;;;;;3.00;99.90;;;;;;5011575;28;20228;-76
2022/01/07 02:54:04;;;;;;;;;;;3.00;99.90;;;;;;5029342;28;19921;-78
2022/01/07 02:56:29;;;;;;;;;;;3.00;99.90;;;;;;5029025;28;19987;-77
2022/01/07 02:58:55;;;;;;;;;;;3.00;99.90;;;;;;5029185;28;19914;-76
2022/01/07 03:01:20;;;;;;;;;;;3.00;99.90;;;;;;5011101;28;20259;-77
2022/01/07 03:03:46;;;;;;;;;;;3.00;99.90;;;;;;5014171;28;19913;-78
2022/01/07 03:06:11;;;;;;;;;;;3.00;99.90;;;;;;5032477;28;20419;-77
2022/01/07 03:08:37;;;;;;;;;;;3.00;99.90;;;;;;5016187;28;19924;-77
2022/01/07 03:11:03;;;;;;;;;;;3.10;99.90;;;;;;5031255;28;19921;-77
2022/01/07 03:13:28;;;;;;;;;;;3.00;99.90;;;;;;5031606;28;20512;-77
2022/01/07 03:15:54;;;;;;;;;;;3.10;99.90;;;;;;5030572;28;19921;-76
2022/01/07 03:18:20;;;;;;;;;;;3.10;99.90;;;;;;5032255;28;19913;-76
2022/01/07 03:20:45;;;;;;;;;;;3.10;99.90;;;;;;5032659;28;19919;-77
2022/01/07 03:23:12;;;;;;;;;;;3.10;99.90;;;;;;5032200;28;19917;-77
2022/01/07 03:25:42;;;;;;;;;;;3.10;99.90;;;;;;5014563;28;19913;-77
2022/01/07 03:28:10;;;;;;;;;;;3.10;99.90;;;;;;5014907;28;19967;-77
2022/01/07 03:30:35;;;;;;;;;;;3.10;99.90;;;;;;5031926;28;19917;-76
2022/01/07 03:33:01;;;;;;;;;;;3.10;99.90;;;;;;5014543;28;19920;-78
2022/01/07 03:35:26;;;;;;;;;;;3.10;99.90;;;;;;5013409;28;19917;-77
2022/01/07 03:37:52;;;;;;;;;;;3.10;99.90;;;;;;5030752;28;19978;-85
2022/01/07 03:40:19;;;;;;;;;;;3.10;99.90;;;;;;5031013;28;19932;-76
2022/01/07 03:42:45;;;;;;;;;;;3.20;99.90;;;;;;5013485;28;19913;-78
2022/01/07 03:45:12;;;;;;;;;;;3.20;99.90;;;;;;5029659;28;19991;-76
2022/01/07 03:47:38;;;;;;;;;;;3.20;99.90;;;;;;5013312;28;20519;-78
2022/01/07 03:50:06;;;;;;;;;;;3.20;99.90;;;;;;5014205;28;20240;-77
2022/01/07 03:52:32;;;;;;;;;;;3.20;99.90;;;;;;5013542;28;19996;-78
2022/01/07 03:54:57;;;;;;;;;;;3.20;99.90;;;;;;5014388;28;20012;-77
2022/01/07 03:57:23;;;;;;;;;;;3.20;99.90;;;;;;5031882;28;19913;-77
2022/01/07 03:59:50;;;;;;;;;;;3.20;99.90;;;;;;5032018;28;19917;-75
2022/01/07 04:02:19;;;;;;;;;;;3.20;99.90;;;;;;5031686;28;19924;-77
2022/01/07 04:04:44;;;;;;;;;;;3.30;99.90;;;;;;5012242;28;19913;-79
2022/01/07 04:07:10;;;;;;;;;;;3.30;99.90;;;;;;5013117;28;19917;-78
2022/01/07 04:09:36;;;;;;;;;;;3.40;99.90;;;;;;5015286;28;20028;-77
2022/01/07 04:12:01;;;;;;;;;;;3.30;99.90;;;;;;5013753;28;19921;-77
2022/01/07 04:14:27;;;;;;;;;;;3.30;99.90;;;;;;5031975;28;19936;-77
2022/01/07 04:16:53;;;;;;;;;;;3.40;99.90;;;;;;5013001;28;20006;-76
2022/01/07 04:19:18;;;;;;;;;;;3.30;99.90;;;;;;5031927;28;19928;-77
2022/01/07 04:21:44;;;;;;;;;;;3.30;99.90;;;;;;5013448;28;20279;-78
2022/01/07 04:24:10;;;;;;;;;;;3.30;99.90;;;;;;5031235;28;20305;-78
2022/01/07 04:26:36;;;;;;;;;;;3.30;99.90;;;;;;5031536;28;20335;-77
2022/01/07 04:29:02;;;;;;;;;;;3.30;99.90;;;;;;5014052;28;19913;-76
2022/01/07 04:31:27;;;;;;;;;;;3.40;99.90;;;;;;5031614;28;19935;-77
2022/01/07 04:33:53;;;;;;;;;;;3.40;99.90;;;;;;5031374;28;19913;-77
2022/01/07 04:36:18;;;;;;;;;;;3.40;99.90;;;;;;5031352;28;19921;-77
2022/01/07 04:38:44;;;;;;;;;;;3.40;99.90;;;;;;4997227;28;19913;-78
2022/01/07 04:41:10;;;;;;;;;;;3.40;99.90;;;;;;5013665;28;19924;-76
2022/01/07 04:43:35;;;;;;;;;;;3.40;99.90;;;;;;5031586;28;20209;-77
2022/01/07 04:46:01;;;;;;;;;;;3.40;99.90;;;;;;5010023;28;19931;-78
2022/01/07 04:48:26;;;;;;;;;;;3.50;99.90;;;;;;5011875;28;20313;-78
2022/01/07 04:50:52;;;;;;;;;;;3.40;99.90;;;;;;5011674;28;19920;-78
2022/01/07 04:53:18;;;;;;;;;;;3.50;99.90;;;;;;5010351;28;19951;-78
2022/01/07 04:55:44;;;;;;;;;;;3.50;99.90;;;;;;5010206;28;19925;-77
2022/01/07 04:58:11;;;;;;;;;;;3.50;99.90;;;;;;5010262;28;19917;-78
2022/01/07 05:00:37;;;;;;;;;;;3.50;99.90;;;;;;5009924;28;20024;-77
2022/01/07 05:03:03;;;;;;;;;;;3.50;99.90;;;;;;5011225;28;19964;-78
2022/01/07 05:05:29;;;;;;;;;;;3.50;99.90;;;;;;5011527;28;20271;-78
2022/01/07 05:07:55;;;;;;;;;;;3.60;99.90;;;;;;5009811;28;19971;-77
2022/01/07 05:10:20;;;;;;;;;;;3.60;99.90;;;;;;5009788;28;20004;-78
2022/01/07 05:12:46;;;;;;;;;;;3.60;99.90;;;;;;5011047;28;19918;-78
2022/01/07 05:15:12;;;;;;;;;;;3.60;99.90;;;;;;5011082;28;19976;-78
2022/01/07 05:17:38;;;;;;;;;;;3.60;99.90;;;;;;5010936;28;19918;-77
2022/01/07 05:20:04;;;;;;;;;;;3.60;99.90;;;;;;5012570;28;20232;-78
2022/01/07 05:22:30;;;;;;;;;;;3.60;99.90;;;;;;5010972;28;19910;-78
2022/01/07 05:24:55;;;;;;;;;;;3.70;99.90;;;;;;5009492;28;19932;-78
2022/01/07 05:27:21;;;;;;;;;;;3.70;99.90;;;;;;5010869;28;19964;-78
2022/01/07 05:29:46;;;;;;;;;;;3.70;99.90;;;;;;5009935;28;20281;-78
2022/01/07 05:32:12;;;;;;;;;;;3.70;99.90;;;;;;5011192;28;19984;-78
2022/01/07 05:34:38;;;;;;;;;;;3.80;99.90;;;;;;5010721;28;19913;-78
2022/01/07 05:37:03;;;;;;;;;;;3.80;99.90;;;;;;5010442;28;20291;-78
2022/01/07 05:39:29;;;;;;;;;;;3.80;99.90;;;;;;5009355;28;19924;-77
2022/01/07 05:41:55;;;;;;;;;;;3.80;99.90;;;;;;5009406;28;19972;-78
2022/01/07 05:44:21;;;;;;;;;;;3.90;99.90;;;;;;5008331;28;19932;-78
2022/01/07 05:46:47;;;;;;;;;;;3.90;99.90;;;;;;5005443;28;19932;-78
2022/01/07 05:49:12;;;;;;;;;;;3.90;99.90;;;;;;5009673;28;19913;-77
2022/01/07 05:51:38;;;;;;;;;;;4.00;99.90;;;;;;5007651;28;19917;-77
2022/01/07 05:54:04;;;;;;;;;;;4.00;99.90;;;;;;5009383;28;19921;-78
2022/01/07 05:56:31;;;;;;;;;;;4.00;99.90;;;;;;5007929;28;20000;-78
2022/01/07 05:58:56;;;;;;;;;;;4.00;99.90;;;;;;5008183;28;19993;-78
2022/01/07 06:01:22;;;;;;;;;;;4.00;99.90;;;;;;5008174;28;19930;-78
2022/01/07 06:03:47;;;;;;;;;;;4.00;99.90;;;;;;5009746;28;20001;-78
2022/01/07 06:06:13;;;;;;;;;;;4.00;99.90;;;;;;5009205;28;19917;-78
2022/01/07 06:08:39;;;;;;;;;;;4.00;99.90;;;;;;5005563;28;19921;-78
2022/01/07 06:11:08;;;;;;;;;;;4.00;99.90;;;;;;5003566;28;20091;-77
2022/01/07 06:13:34;;;;;;;;;;;4.10;99.90;;;;;;5008487;28;19922;-79
2022/01/07 06:15:59;;;;;;;;;;;4.10;99.90;;;;;;5007962;28;19928;-78
2022/01/07 06:18:25;;;;;;;;;;;4.10;99.90;;;;;;5009190;28;20272;-78
2022/01/07 06:20:51;;;;;;;;;;;4.10;99.90;;;;;;5007708;28;19917;-78
2022/01/07 06:23:16;;;;;;;;;;;4.00;99.90;;;;;;5006123;28;19914;-78
2022/01/07 06:25:44;;;;;;;;;;;4.00;99.90;;;;;;5005440;28;19959;-78
2022/01/07 06:28:10;;;;;;;;;;;4.00;99.90;;;;;;5005992;28;19925;-78
2022/01/07 06:30:36;;;;;;;;;;;4.10;99.90;;;;;;5008834;28;19917;-78
2022/01/07 06:33:01;;;;;;;;;;;4.10;99.90;;;;;;5007941;28;19913;-76
2022/01/07 06:35:27;;;;;;;;;;;4.10;99.90;;;;;;5006853;28;19921;-78
2022/01/07 06:37:52;;;;;;;;;;;4.20;99.90;;;;;;5010158;28;19913;-77
2022/01/07 06:40:18;;;;;;;;;;;4.20;99.90;;;;;;5009048;28;20024;-74
2022/01/07 06:42:43;;;;;;;;;;;4.20;99.90;;;;;;5011906;28;19956;-78
2022/01/07 06:45:09;;;;;;;;;;;4.30;99.90;;;;;;5024603;28;19921;-78
2022/01/07 06:47:35;;;;;;;;;;;4.30;99.90;;;;;;5033272;28;20020;-76
2022/01/07 06:50:01;;;;;;;;;;;4.30;99.90;;;;;;5033576;28;19913;-77
2022/01/07 06:52:26;;;;;;;;;;;4.30;99.90;;;;;;5033476;28;19913;-78
2022/01/07 06:54:52;;;;;;;;;;;4.30;99.90;;;;;;5033069;28;19921;-78
2022/01/07 06:57:17;;;;;;;;;;;4.30;99.90;;;;;;5014941;28;19963;-77
2022/01/07 06:59:45;;;;;;;;;;;4.40;99.90;;;;;;5015324;28;19964;-79
2022/01/07 07:02:10;;;;;;;;;;;4.30;99.90;;;;;;5014989;28;19963;-77
2022/01/07 07:04:36;;;;;;;;;;;4.30;99.90;;;;;;5032821;28;19921;-78
2022/01/07 07:07:02;;;;;;;;;;;4.30;99.90;;;;;;5032705;28;20421;-79
2022/01/07 07:09:27;;;;;;;;;;;4.30;99.90;;;;;;5015227;28;20227;-77
2022/01/07 07:11:53;;;;;;;;;;;4.20;99.90;;;;;;5014969;28;19912;-78
2022/01/07 07:14:19;;;;;;;;;;;4.30;99.90;;;;;;5014493;28;19921;-78
2022/01/07 07:16:44;;;;;;;;;;;4.30;99.90;;;;;;5015186;28;20516;-84
2022/01/07 07:19:10;;;;;;;;;;;4.30;99.90;;;;;;5015449;28;19917;-78
2022/01/07 07:21:36;;;;;;;;;;;4.30;99.90;;;;;;5032874;28;19932;-78
2022/01/07 07:24:02;;;;;;;;;;;4.30;99.90;;;;;;5014971;28;19913;-77
2022/01/07 07:26:27;;;;;;;;;;;4.30;99.90;;;;;;5014883;28;19921;-77
2022/01/07 07:28:53;;;;;;;;;;;4.30;99.90;;;;;;5031561;28;19913;-77
2022/01/07 07:31:19;;;;;;;;;;;4.30;99.90;;;;;;5013346;28;20012;-78
2022/01/07 07:38:52;;;;;;;;;;;4.30;99.90;;;;;;5030566;28;19927;-77
2022/01/07 07:41:18;;;;;;;;;;;4.30;99.90;;;;;;5031346;28;21474;-79
2022/01/07 07:43:46;;;;;;;;;;;4.30;99.90;;;;;;5012993;28;20501;-77
2022/01/07 07:46:11;;;;;;;;;;;4.30;99.90;;;;;;5030876;28;19947;-77
2022/01/07 07:48:37;;;;;;;;;;;4.40;99.90;;;;;;5012189;28;19916;-78
2022/01/07 07:51:03;;;;;;;;;;;4.40;99.90;;;;;;5012781;28;19917;-79
2022/01/07 07:53:28;;;;;;;;;;;4.40;99.90;;;;;;5013446;28;20367;-77
2022/01/07 07:55:54;;;;;;;;;;;4.40;99.90;;;;;;5014045;28;20520;-80
2022/01/07 07:58:20;;;;;;;;;;;4.40;99.90;;;;;;5014169;28;19983;-80
2022/01/07 08:00:46;;;;;;;;;;;4.50;99.90;;;;;;5030470;28;19913;-79
2022/01/07 08:03:12;;;;;;;;;;;4.50;99.90;;;;;;5030696;28;19914;-82
2022/01/07 08:05:39;;;;;;;;;;;4.50;99.90;;;;;;5032314;28;20339;-80
2022/01/07 08:08:04;;;;;;;;;;;4.50;99.90;;;;;;5032939;28;20051;-78
2022/01/07 08:10:31;;;;;;;;;;;4.60;99.90;;;;;;5013933;28;20012;-78
2022/01/07 08:18:15;;;;;;;;;;;4.60;99.90;;;;;;5031882;28;19997;-78
2022/01/07 08:20:41;;;;;;;;;;;4.60;99.90;;;;;;5031451;28;19967;-78
2022/01/07 08:23:07;;;;;;;;;;;4.60;99.90;;;;;;5031278;28;19917;-78
2022/01/07 08:25:32;;;;;;;;;;;4.60;99.90;;;;;;5013132;28;20059;-78
2022/01/07 08:28:04;;;;;;;;;;;4.60;99.90;;;;;;5013684;28;20210;-78
2022/01/07 08:30:36;;;;;;;;;;;4.60;99.90;;;;;;5013593;28;19917;-78
2022/01/07 08:35:46;;;;;;;;;;;4.50;99.90;;;;;;5031873;28;19967;-79
2022/01/07 08:38:12;;;;;;;;;;;4.50;99.90;;;;;;5031926;28;19913;-79
2022/01/07 08:40:38;;;;;;;;;;;4.40;99.90;;;;;;5013622;28;20271;-78
2022/01/07 08:43:03;;;;;;;;;;;4.40;99.90;;;;;;5031640;28;20019;-78
2022/01/07 08:45:29;;;;;;;;;;;4.30;99.90;;;;;;5012891;28;20312;-77
2022/01/07 08:47:54;;;;;;;;;;;4.30;99.90;;;;;;5031368;28;20380;-78
2022/01/07 08:50:20;;;;;;;;;;;4.30;99.90;;;;;;5031203;28;19921;-77
2022/01/07 08:52:46;;;;;;;;;;;4.40;99.90;;;;;;5013181;28;19932;-78
2022/01/07 08:55:12;;;;;;;;;;;4.50;99.90;;;;;;5029764;28;19974;-78
2022/01/07 08:57:37;;;;;;;;;;;4.60;99.90;;;;;;5013138;28;19916;-77
2022/01/07 09:00:04;;;;;;;;;;;4.60;99.90;;;;;;5029734;28;20032;-77
2022/01/07 09:02:29;;;;;;;;;;;4.80;99.90;;;;;;5002981;28;19924;-78
2022/01/07 09:04:56;;;;;;;;;;;4.90;99.90;;;;;;5031899;28;19920;-78
2022/01/07 09:07:21;;;;;;;;;;;5.00;99.90;;;;;;5010590;28;19924;-77
2022/01/07 09:09:47;;;;;;;;;;;5.00;99.90;;;;;;5029653;28;20026;-77
2022/01/07 09:12:13;;;;;;;;;;;5.10;99.90;;;;;;4995703;28;20450;-78
2022/01/07 09:14:39;;;;;;;;;;;5.10;99.90;;;;;;5012293;28;19967;-77
2022/01/07 09:17:05;;;;;;;;;;;5.00;99.90;;;;;;5031135;28;19921;-78
2022/01/07 09:19:31;;;;;;;;;;;5.00;99.90;;;;;;5036301;28;19916;-78
2022/01/07 09:21:57;;;;;;;;;;;4.90;99.90;;;;;;5015881;28;20258;-78
2022/01/07 09:24:23;;;;;;;;;;;4.90;99.90;;;;;;5012528;28;19925;-77
2022/01/07 09:26:48;;;;;;;;;;;4.80;99.90;;;;;;5008306;28;19929;-76
2022/01/07 09:29:14;;;;;;;;;;;4.80;99.90;;;;;;5031553;28;19917;-77
2022/01/07 09:31:40;;;;;;;;;;;4.80;99.90;;;;;;5031237;28;19921;-78
2022/01/07 09:34:06;;;;;;;;;;;4.80;99.90;;;;;;5014384;28;19917;-76
2022/01/07 09:36:32;;;;;;;;;;;4.80;99.90;;;;;;5014009;28;19917;-77
2022/01/07 09:38:58;;;;;;;;;;;4.80;99.90;;;;;;5030372;28;19925;-79
2022/01/07 09:41:25;;;;;;;;;;;4.60;99.90;;;;;;5035659;28;19917;-79
2022/01/07 09:43:51;;;;;;;;;;;4.10;99.90;;;;;;5033646;28;19924;-79
2022/01/07 09:46:18;;;;;;;;;;;3.80;99.90;;;;;;5023572;28;19940;-80
2022/01/07 09:48:44;;;;;;;;;;;3.70;99.90;;;;;;5016432;28;19924;-79
2022/01/07 09:51:14;;;;;;;;;;;3.60;99.90;;;;;;5032368;28;20276;-80
2022/01/07 09:53:40;;;;;;;;;;;3.50;99.90;;;;;;5016585;28;20556;-80
2022/01/07 09:56:05;;;;;;;;;;;3.50;99.90;;;;;;5013712;28;19921;-79
2022/01/07 09:58:32;;;;;;;;;;;3.40;99.90;;;;;;5030577;28;19917;-80
2022/01/07 10:01:02;;;;;;;;;;;3.40;99.90;;;;;;5029471;28;19917;-79
2022/01/07 10:03:34;;;;;;;;;;;3.30;99.90;;;;;;5029670;28;19994;-80
2022/01/07 10:06:00;;;;;;;;;;;3.20;99.90;;;;;;5013585;28;19965;-81
2022/01/07 10:08:26;;;;;;;;;;;3.10;99.90;;;;;;5012643;28;19971;-80
2022/01/07 10:11:13;;;;;;;;;;;3.10;99.90;;;;;;5003093;28;19921;-83
2022/01/07 10:13:40;;;;;;;;;;;3.10;99.90;;;;;;5031722;28;20008;-80
2022/01/07 10:16:12;;;;;;;;;;;3.00;99.90;;;;;;5033428;28;19921;-80
2022/01/07 10:18:38;;;;;;;;;;;2.90;99.90;;;;;;5014995;28;19982;-79
2022/01/07 10:21:08;;;;;;;;;;;2.90;99.90;;;;;;5012353;28;20619;-81
2022/01/07 10:23:34;;;;;;;;;;;3.00;99.90;;;;;;5033609;28;20015;-80
2022/01/07 10:25:59;;;;;;;;;;;3.00;99.90;;;;;;5014924;28;20003;-79
2022/01/07 10:28:29;;;;;;;;;;;3.10;99.90;;;;;;5015756;28;19921;-79
2022/01/07 10:30:55;;;;;;;;;;;3.20;99.90;;;;;;4999482;28;19943;-79
2022/01/07 10:33:22;;;;;;;;;;;3.30;99.90;;;;;;5032809;28;20305;-78
2022/01/07 10:35:57;;;;;;;;;;;3.40;99.90;;;;;;5034280;28;19952;-80
2022/01/07 10:38:27;;;;;;;;;;;3.40;99.90;;;;;;5023428;28;19963;-81
2022/01/07 10:40:54;;;;;;;;;;;3.50;99.90;;;;;;5029971;28;20205;-79
2022/01/07 10:43:32;;;;;;;;;;;3.60;99.90;;;;;;5027014;28;19917;-78
2022/01/07 10:46:00;;;;;;;;;;;3.80;99.90;;;;;;5026481;28;19921;-78
2022/01/07 10:48:36;;;;;;;;;;;4.00;99.90;;;;;;5040373;28;19917;-78
2022/01/07 10:51:09;;;;;;;;;;;4.20;99.90;;;;;;5028131;28;19917;-78
2022/01/07 10:53:35;;;;;;;;;;;4.40;99.90;;;;;;5027393;28;19966;-79
2022/01/07 10:56:01;;;;;;;;;;;4.60;99.90;;;;;;5018692;28;19994;-79
2022/01/07 10:58:27;;;;;;;;;;;4.60;99.90;;;;;;5017196;28;20300;-79
2022/01/07 11:00:53;;;;;;;;;;;4.60;99.90;;;;;;5017093;28;19913;-79
2022/01/07 11:03:18;;;;;;;;;;;4.70;99.90;;;;;;5022782;28;19941;-79
2022/01/07 11:05:44;;;;;;;;;;;4.70;99.90;;;;;;5028535;28;20035;-79
2022/01/07 11:08:11;;;;;;;;;;;4.80;99.90;;;;;;5031756;28;20003;-78
2022/01/07 11:10:38;;;;;;;;;;;4.90;99.90;;;;;;5032226;28;19917;-79
2022/01/07 11:13:04;;;;;;;;;;;5.10;99.90;;;;;;5031516;28;19913;-78
2022/01/07 11:15:29;;;;;;;;;;;5.20;99.90;;;;;;5033990;28;19960;-78
2022/01/07 11:17:55;;;;;;;;;;;5.10;99.90;;;;;;4997050;28;19916;-77
2022/01/07 11:20:24;;;;;;;;;;;5.20;99.90;;;;;;5040104;28;19921;-78
2022/01/07 11:22:50;;;;;;;;;;;5.10;99.90;;;;;;5030097;28;20387;-78
2022/01/07 11:25:16;;;;;;;;;;;5.20;99.90;;;;;;5045459;28;20015;-78
2022/01/07 11:28:00;;;;;;;;;;;5.20;99.90;;;;;;5033846;28;19920;-79
2022/01/07 11:30:31;;;;;;;;;;;5.30;99.90;;;;;;5045635;28;19917;-78
2022/01/07 11:32:58;;;;;;;;;;;5.40;99.90;;;;;;5045742;28;19917;-78
2022/01/07 11:35:24;;;;;;;;;;;5.40;99.90;;;;;;5031666;28;19913;-78
2022/01/07 11:37:54;;;;;;;;;;;5.40;99.90;;;;;;5020884;28;19916;-78
2022/01/07 11:40:28;;;;;;;;;;;5.50;99.90;;;;;;5037008;28;19960;-79
2022/01/07 11:42:54;;;;;;;;;;;5.50;99.90;;;;;;5027933;28;19917;-80
2022/01/07 11:45:28;;;;;;;;;;;5.50;99.90;;;;;;5042852;28;19929;-78
2022/01/07 11:47:58;;;;;;;;;;;5.60;99.90;;;;;;5045986;28;19921;-78
2022/01/07 11:50:24;;;;;;;;;;;5.70;99.90;;;;;;5043628;28;19913;-78
2022/01/07 11:52:57;;;;;;;;;;;5.70;99.90;;;;;;5044806;28;19975;-78
2022/01/07 11:55:29;;;;;;;;;;;5.70;99.90;;;;;;5044964;28;19927;-79
2022/01/07 11:57:57;;;;;;;;;;;5.70;99.90;;;;;;5048924;28;19963;-77
2022/01/07 12:00:41;;;;;;;;;;;5.70;99.90;;;;;;5042704;28;19921;-78
2022/01/07 12:03:06;;;;;;;;;;;5.60;99.90;;;;;;5044689;28;19959;-78
2022/01/07 12:05:32;;;;;;;;;;;5.50;99.90;;;;;;5043197;28;19922;-77
2022/01/07 12:07:57;;;;;;;;;;;5.50;99.90;;;;;;5047235;28;19928;-78
2022/01/07 12:10:23;;;;;;;;;;;5.50;99.90;;;;;;5031867;28;19920;-78
2022/01/07 12:12:50;;;;;;;;;;;5.40;99.90;;;;;;5043967;28;19917;-79
2022/01/07 12:15:16;;;;;;;;;;;5.50;99.90;;;;;;5044488;28;19925;-78
2022/01/07 12:17:41;;;;;;;;;;;5.50;99.90;;;;;;5048154;28;19921;-78
2022/01/07 12:20:20;;;;;;;;;;;5.50;99.90;;;;;;5041509;28;20296;-78
2022/01/07 12:22:46;;;;;;;;;;;5.50;99.90;;;;;;5038362;28;19917;-77
2022/01/07 12:25:12;;;;;;;;;;;5.50;99.90;;;;;;5019886;28;19913;-77
2022/01/07 12:27:37;;;;;;;;;;;5.50;99.90;;;;;;5035431;28;20287;-78
2022/01/07 12:30:03;;;;;;;;;;;5.50;99.90;;;;;;5044232;28;20007;-78
2022/01/07 12:32:36;;;;;;;;;;;5.50;99.90;;;;;;5033397;28;19913;-78
2022/01/07 12:35:03;;;;;;;;;;;5.50;99.90;;;;;;5048855;28;20370;-80
2022/01/07 12:37:29;;;;;;;;;;;5.30;99.90;;;;;;5045409;28;19920;-78
2022/01/07 12:39:57;;;;;;;;;;;5.30;99.90;;;;;;5035490;28;19920;-78
2022/01/07 12:42:23;;;;;;;;;;;5.30;99.90;;;;;;5033570;28;19913;-82
2022/01/07 12:44:54;;;;;;;;;;;5.20;99.90;;;;;;5042652;28;20378;-78
2022/01/07 12:47:24;;;;;;;;;;;5.20;99.90;;;;;;5047492;28;19921;-79
2022/01/07 12:49:53;;;;;;;;;;;5.10;99.90;;;;;;5047888;28;19916;-78
2022/01/07 12:52:19;;;;;;;;;;;5.00;99.90;;;;;;5043734;28;20327;-77
2022/01/07 12:54:51;;;;;;;;;;;4.80;99.90;;;;;;5045440;28;19913;-77
2022/01/07 12:57:27;;;;;;;;;;;4.70;99.90;;;;;;5044898;28;19967;-78
2022/01/07 13:00:11;;;;;;;;;;;4.70;99.90;;;;;;5045682;28;19968;-78
2022/01/07 13:02:38;;;;;;;;;;;4.60;99.90;;;;;;5049424;28;19928;-78
2022/01/07 13:05:09;;;;;;;;;;;4.50;99.90;;;;;;5044130;28;19921;-79
2022/01/07 13:07:46;;;;;;;;;;;4.40;99.90;;;;;;5038986;28;20012;-77
2022/01/07 13:10:15;;;;;;;;;;;4.40;99.90;;;;;;5018178;28;19913;-79
2022/01/07 13:12:41;;;;;;;;;;;4.40;99.90;;;;;;5017573;28;20351;-78
2022/01/07 13:15:07;;;;;;;;;;;4.40;99.90;;;;;;5035985;28;19948;-79
2022/01/07 13:17:32;;;;;;;;;;;4.40;99.90;;;;;;5017540;28;20362;-78
2022/01/07 13:19:58;;;;;;;;;;;4.40;99.90;;;;;;5035808;28;19928;-79
2022/01/07 13:22:26;;;;;;;;;;;4.40;99.90;;;;;;5026697;28;20007;-78
2022/01/07 13:24:52;;;;;;;;;;;4.40;99.90;;;;;;5034972;28;20251;-78
2022/01/07 13:27:18;;;;;;;;;;;4.50;99.90;;;;;;5020227;28;20317;-79
2022/01/07 13:29:47;;;;;;;;;;;4.50;99.90;;;;;;5042696;28;19951;-78
2022/01/07 13:32:18;;;;;;;;;;;4.50;99.90;;;;;;5041428;28;19913;-78
2022/01/07 13:34:44;;;;;;;;;;;4.40;99.90;;;;;;5028355;28;19940;-77
2022/01/07 13:37:14;;;;;;;;;;;4.30;99.90;;;;;;5020534;28;19921;-77
2022/01/07 13:39:47;;;;;;;;;;;4.20;99.90;;;;;;5030705;28;19921;-77
2022/01/07 13:42:18;;;;;;;;;;;4.20;99.90;;;;;;5040625;28;19915;-77
2022/01/07 13:44:52;;;;;;;;;;;4.20;99.90;;;;;;5028100;28;20484;-79
2022/01/07 13:47:19;;;;;;;;;;;4.10;99.90;;;;;;5035899;28;19940;-79
2022/01/07 13:49:44;;;;;;;;;;;4.10;99.90;;;;;;5034830;28;19924;-77
2022/01/07 13:52:10;;;;;;;;;;;4.10;99.90;;;;;;5035475;28;19917;-78
2022/01/07 13:54:36;;;;;;;;;;;4.10;99.90;;;;;;5035736;28;19974;-77
2022/01/07 13:57:04;;;;;;;;;;;4.10;99.90;;;;;;5041380;28;19912;-77
2022/01/07 13:59:46;;;;;;;;;;;4.10;99.90;;;;;;5029107;28;19917;-78
2022/01/07 14:02:31;;;;;;;;;;;4.10;99.90;;;;;;5044951;28;19959;-78
2022/01/07 14:04:57;;;;;;;;;;;4.20;99.90;;;;;;5042519;28;19955;-77
2022/01/07 14:07:24;;;;;;;;;;;4.20;99.90;;;;;;5028984;28;20019;-78
2022/01/07 14:10:08;;;;;;;;;;;4.30;99.90;;;;;;5042629;28;20003;-77
2022/01/07 14:12:35;;;;;;;;;;;4.30;99.90;;;;;;5035215;28;19925;-77
2022/01/07 14:15:10;;;;;;;;;;;4.30;99.90;;;;;;5022382;28;20290;-78
2022/01/07 14:17:37;;;;;;;;;;;4.30;99.90;;;;;;5041189;28;19975;-78
2022/01/07 14:20:04;;;;;;;;;;;4.30;99.90;;;;;;5022977;28;19913;-78
2022/01/07 14:22:30;;;;;;;;;;;4.30;99.90;;;;;;5034328;28;19924;-78
2022/01/07 14:24:56;;;;;;;;;;;4.20;99.90;;;;;;5017239;28;19917;-78
2022/01/07 14:27:24;;;;;;;;;;;4.20;99.90;;;;;;5021093;28;19917;-78
2022/01/07 14:29:50;;;;;;;;;;;4.20;99.90;;;;;;5030001;28;19921;-78
2022/01/07 14:32:15;;;;;;;;;;;4.20;99.90;;;;;;5033008;28;19924;-78
2022/01/07 14:34:41;;;;;;;;;;;4.20;99.90;;;;;;5031523;28;20319;-78
2022/01/07 14:37:07;;;;;;;;;;;4.20;99.90;;;;;;5040860;28;20264;-78
2022/01/07 14:39:32;;;;;;;;;;;4.10;99.90;;;;;;5026673;28;19914;-78
2022/01/07 14:41:58;;;;;;;;;;;4.10;99.90;;;;;;5031221;28;20224;-77